createdAt,value
2019-03-03T00:01:08.253Z,25.90
2019-03-03T00:03:37.728Z,26.03
2019-03-03T00:06:07.126Z,25.60
2019-03-03T00:08:36.509Z,27.90
2019-03-03T00:11:05.886Z,25.77
2019-03-03T00:13:35.292Z,28.27
2019-03-03T00:16:04.789Z,28.80
2019-03-03T00:18:34.133Z,27.83
2019-03-03T00:21:03.554Z,28.90
2019-03-03T00:23:33.068Z,31.33
2019-03-03T00:26:02.415Z,30.80
2019-03-03T00:28:31.783Z,28.13
2019-03-03T00:31:01.350Z,32.87
2019-03-03T00:33:30.793Z,30.00
2019-03-03T00:36:00.198Z,32.23
2019-03-03T00:38:34.517Z,31.93
2019-03-03T00:41:20.920Z,31.30
2019-03-03T00:44:21.269Z,29.50
2019-03-03T00:47:08.270Z,31.13
2019-03-03T00:49:55.655Z,30.97
2019-03-03T00:52:53.119Z,30.33
2019-03-03T00:55:35.679Z,32.17
2019-03-03T00:58:29.854Z,32.47
2019-03-03T01:01:15.185Z,32.17
2019-03-03T01:04:03.463Z,30.77
2019-03-03T01:07:00.514Z,28.60
2019-03-03T01:09:38.950Z,27.43
2019-03-03T01:12:23.175Z,31.80
2019-03-03T01:15:06.236Z,30.20
2019-03-03T01:17:50.397Z,30.77
2019-03-03T01:20:50.842Z,29.07
2019-03-03T01:23:39.286Z,32.10
2019-03-03T01:26:08.673Z,28.90
2019-03-03T01:28:38.061Z,28.00
2019-03-03T01:31:07.435Z,31.87
2019-03-03T01:33:36.849Z,29.33
2019-03-03T01:36:06.344Z,31.23
2019-03-03T01:38:35.711Z,30.73
2019-03-03T01:41:06.333Z,29.90
2019-03-03T01:43:35.848Z,29.33
2019-03-03T01:46:05.262Z,32.87
2019-03-03T01:48:34.730Z,30.80
2019-03-03T01:51:04.124Z,32.33
2019-03-03T01:53:33.506Z,31.73
2019-03-03T01:56:02.881Z,29.90
2019-03-03T01:58:32.283Z,29.57
2019-03-03T02:01:01.702Z,29.73
2019-03-03T02:03:31.298Z,30.87
2019-03-03T02:06:00.724Z,25.87
2019-03-03T02:08:30.106Z,27.17
2019-03-03T02:10:59.584Z,28.90
2019-03-03T02:13:28.996Z,25.37
2019-03-03T02:15:58.450Z,21.90
2019-03-03T02:18:27.802Z,22.03
2019-03-03T02:20:57.157Z,26.27
2019-03-03T02:23:26.576Z,26.33
2019-03-03T02:25:55.962Z,26.90
2019-03-03T02:28:25.333Z,26.10
2019-03-03T02:30:54.719Z,26.93
2019-03-03T02:33:24.296Z,26.40
2019-03-03T02:35:53.626Z,24.03
2019-03-03T02:38:22.987Z,27.67
2019-03-03T02:40:52.345Z,26.57
2019-03-03T02:43:21.758Z,26.80
2019-03-03T02:45:51.217Z,24.43
2019-03-03T02:48:20.567Z,27.83
2019-03-03T02:50:49.969Z,25.20
2019-03-03T02:53:19.336Z,30.83
2019-03-03T02:55:48.703Z,23.30
2019-03-03T02:58:18.048Z,26.63
2019-03-03T03:00:55.028Z,27.43
2019-03-03T03:03:24.558Z,23.80
2019-03-03T03:06:11.979Z,24.90
2019-03-03T03:08:59.459Z,26.97
2019-03-03T03:11:45.964Z,24.77
2019-03-03T03:14:32.858Z,24.83
2019-03-03T03:17:20.179Z,25.20
2019-03-03T03:20:23.903Z,25.30
2019-03-03T03:23:00.156Z,26.20
2019-03-03T03:25:54.490Z,24.93
2019-03-03T03:28:33.483Z,25.67
2019-03-03T03:31:20.835Z,26.00
2019-03-03T03:34:18.211Z,28.40
2019-03-03T03:37:12.159Z,25.57
2019-03-03T03:39:59.144Z,25.40
2019-03-03T03:42:37.362Z,27.87
2019-03-03T03:45:33.475Z,29.00
2019-03-03T03:48:21.788Z,27.13
2019-03-03T03:51:25.485Z,30.73
2019-03-03T03:54:22.142Z,26.93
2019-03-03T03:57:00.896Z,26.53
2019-03-03T03:59:42.978Z,28.77
2019-03-03T04:02:23.965Z,26.77
2019-03-03T04:05:02.772Z,29.63
2019-03-03T04:07:54.432Z,29.40
2019-03-03T04:10:52.094Z,27.30
2019-03-03T04:13:44.618Z,30.07
2019-03-03T04:16:25.095Z,29.07
2019-03-03T04:19:10.393Z,31.23
2019-03-03T04:22:04.722Z,30.60
2019-03-03T04:24:58.910Z,29.90
2019-03-03T04:27:35.273Z,32.47
2019-03-03T04:30:23.675Z,29.93
2019-03-03T04:33:18.049Z,31.53
2019-03-03T04:36:02.383Z,37.30
2019-03-03T04:38:53.631Z,30.63
2019-03-03T04:41:39.008Z,32.47
2019-03-03T04:44:13.507Z,34.27
2019-03-03T04:46:48.223Z,31.70
2019-03-03T04:49:37.093Z,31.27
2019-03-03T04:52:24.119Z,28.43
2019-03-03T04:55:12.391Z,31.67
2019-03-03T04:57:53.520Z,29.90
2019-03-03T05:00:35.004Z,29.37
2019-03-03T05:03:26.300Z,34.20
2019-03-03T05:06:13.264Z,32.33
2019-03-03T05:08:50.927Z,32.37
2019-03-03T05:12:15.289Z,30.63
2019-03-03T05:14:44.742Z,29.80
2019-03-03T05:17:38.823Z,29.70
2019-03-03T05:20:08.825Z,26.97
2019-03-03T05:22:38.208Z,26.30
2019-03-03T05:25:07.890Z,29.57
2019-03-03T05:27:37.256Z,33.77
2019-03-03T05:30:07.421Z,32.17
2019-03-03T05:32:36.752Z,31.10
2019-03-03T05:35:06.304Z,34.40
2019-03-03T05:37:35.641Z,34.00
2019-03-03T05:40:08.978Z,31.57
2019-03-03T05:42:41.346Z,30.90
2019-03-03T05:45:10.800Z,32.70
2019-03-03T05:47:40.220Z,29.50
2019-03-03T05:50:09.590Z,29.37
2019-03-03T05:52:38.980Z,31.90
2019-03-03T05:55:08.359Z,32.03
2019-03-03T05:57:37.754Z,35.20
2019-03-03T06:00:07.369Z,30.57
2019-03-03T06:02:36.823Z,37.50
2019-03-03T06:05:06.628Z,35.40
2019-03-03T06:07:35.987Z,61.57
2019-03-03T06:10:06.362Z,47.70
2019-03-03T06:12:35.730Z,43.57
2019-03-03T06:15:05.671Z,43.70
2019-03-03T06:17:35.050Z,43.07
2019-03-03T06:20:04.962Z,36.03
2019-03-03T06:22:35.149Z,33.10
2019-03-03T06:25:04.953Z,37.53
2019-03-03T06:27:34.469Z,37.10
2019-03-03T06:30:05.460Z,39.03
2019-03-03T06:32:35.066Z,37.60
2019-03-03T06:35:04.881Z,39.60
2019-03-03T06:37:34.314Z,46.70
2019-03-03T06:40:03.854Z,46.30
2019-03-03T06:42:33.187Z,45.83
2019-03-03T06:45:02.557Z,46.53
2019-03-03T06:47:31.899Z,42.90
2019-03-03T06:50:01.330Z,55.70
2019-03-03T06:52:30.790Z,46.70
2019-03-03T06:55:00.240Z,50.70
2019-03-03T06:57:37.698Z,56.23
2019-03-03T07:00:12.207Z,50.70
2019-03-03T07:02:44.866Z,47.97
2019-03-03T07:05:14.335Z,49.10
2019-03-03T07:07:43.814Z,50.07
2019-03-03T07:10:14.438Z,55.00
2019-03-03T07:12:43.789Z,50.53
2019-03-03T07:15:15.002Z,48.37
2019-03-03T07:17:54.381Z,50.03
2019-03-03T07:21:07.647Z,46.67
2019-03-03T07:23:32.805Z,58.23
2019-03-03T07:26:02.174Z,49.63
2019-03-03T07:28:31.551Z,46.77
2019-03-03T07:31:00.919Z,44.27
2019-03-03T07:33:32.293Z,44.47
2019-03-03T07:36:01.653Z,52.17
2019-03-03T07:38:31.004Z,47.43
2019-03-03T07:41:00.378Z,70.10
2019-03-03T07:43:32.737Z,55.60
2019-03-03T07:46:02.195Z,43.40
2019-03-03T07:48:31.509Z,36.77
2019-03-03T07:51:00.854Z,41.80
2019-03-03T07:53:30.188Z,34.63
2019-03-03T07:56:06.316Z,54.57
2019-03-03T07:58:35.669Z,37.30
2019-03-03T08:01:05.123Z,33.83
2019-03-03T08:03:35.616Z,32.83
2019-03-03T08:06:04.902Z,33.57
2019-03-03T08:08:34.364Z,39.20
2019-03-03T08:11:03.837Z,35.13
2019-03-03T08:13:33.211Z,32.10
2019-03-03T08:16:02.619Z,33.83
2019-03-03T08:18:32.403Z,33.60
2019-03-03T08:21:01.770Z,32.17
2019-03-03T08:23:34.420Z,33.27
2019-03-03T08:26:04.062Z,36.90
2019-03-03T08:28:33.439Z,33.53
2019-03-03T08:31:02.773Z,36.13
2019-03-03T08:33:32.132Z,41.87
2019-03-03T08:36:02.896Z,44.17
2019-03-03T08:38:32.230Z,41.50
2019-03-03T08:41:01.624Z,34.63
2019-03-03T08:43:52.950Z,37.40
2019-03-03T08:46:41.055Z,39.27
2019-03-03T08:49:19.497Z,39.40
2019-03-03T08:52:20.173Z,36.30
2019-03-03T08:55:14.545Z,30.50
2019-03-03T08:58:05.859Z,31.23
2019-03-03T09:00:53.026Z,32.90
2019-03-03T09:03:40.294Z,32.67
2019-03-03T09:06:17.839Z,31.27
2019-03-03T09:09:06.120Z,30.40
2019-03-03T09:11:40.546Z,32.50
2019-03-03T09:14:25.228Z,29.33
2019-03-03T09:17:08.014Z,30.17
2019-03-03T09:19:55.279Z,30.17
2019-03-03T09:22:46.376Z,30.63
2019-03-03T09:25:33.476Z,33.17
2019-03-03T09:28:21.752Z,32.03
2019-03-03T09:31:06.952Z,30.03
2019-03-03T09:34:04.106Z,31.40
2019-03-03T09:36:55.314Z,26.90
2019-03-03T09:39:41.659Z,29.33
2019-03-03T09:42:32.972Z,28.40
2019-03-03T09:45:18.959Z,27.23
2019-03-03T09:47:55.595Z,29.57
2019-03-03T09:50:50.130Z,26.57
2019-03-03T09:53:38.094Z,27.97
2019-03-03T09:56:38.706Z,27.27
2019-03-03T09:59:28.746Z,26.37
2019-03-03T10:02:32.169Z,27.33
2019-03-03T10:05:26.254Z,30.50
2019-03-03T10:08:11.445Z,29.10
2019-03-03T10:11:11.990Z,29.17
2019-03-03T10:14:13.534Z,27.97
2019-03-03T10:17:14.121Z,25.13
2019-03-03T10:19:52.508Z,23.07
2019-03-03T10:22:51.673Z,28.53
2019-03-03T10:25:47.032Z,24.17
2019-03-03T10:28:34.439Z,21.83
2019-03-03T10:31:22.812Z,24.77
2019-03-03T10:34:25.809Z,25.20
2019-03-03T10:37:14.570Z,22.13
2019-03-03T10:40:05.971Z,23.17
2019-03-03T10:42:57.534Z,22.67
2019-03-03T10:45:52.675Z,24.13
2019-03-03T10:48:36.169Z,21.97
2019-03-03T10:51:23.234Z,24.33
2019-03-03T10:54:23.753Z,24.70
2019-03-03T10:57:24.704Z,22.37
2019-03-03T11:00:02.719Z,24.20
2019-03-03T11:02:58.648Z,24.43
2019-03-03T11:06:03.730Z,22.27
2019-03-03T11:08:42.929Z,23.63
2019-03-03T11:11:43.534Z,24.73
2019-03-03T11:14:50.313Z,22.67
2019-03-03T11:17:41.375Z,26.60
2019-03-03T11:20:25.340Z,22.57
2019-03-03T11:23:20.083Z,24.90
2019-03-03T11:26:16.308Z,22.27
2019-03-03T11:29:24.805Z,26.17
2019-03-03T11:32:31.918Z,27.27
2019-03-03T11:35:19.115Z,22.13
2019-03-03T11:38:14.710Z,19.90
2019-03-03T11:41:20.953Z,21.60
2019-03-03T11:44:02.449Z,20.07
2019-03-03T11:46:59.836Z,23.13
2019-03-03T11:49:53.523Z,22.57
2019-03-03T11:52:37.833Z,21.70
2019-03-03T11:55:29.089Z,20.50
2019-03-03T11:58:17.494Z,26.67
2019-03-03T12:01:04.763Z,22.60
2019-03-03T12:03:58.258Z,21.47
2019-03-03T12:06:46.896Z,18.90
2019-03-03T12:09:29.732Z,21.27
2019-03-03T12:12:16.928Z,22.87
2019-03-03T12:14:57.016Z,23.90
2019-03-03T12:17:45.298Z,22.47
2019-03-03T12:20:23.941Z,23.63
2019-03-03T12:23:10.808Z,19.13
2019-03-03T12:25:46.712Z,21.07
2019-03-03T12:28:33.985Z,20.27
2019-03-03T12:31:12.863Z,18.10
2019-03-03T12:34:01.101Z,19.30
2019-03-03T12:37:07.736Z,17.40
2019-03-03T12:39:53.756Z,17.03
2019-03-03T12:42:39.661Z,18.13
2019-03-03T12:45:26.681Z,16.30
2019-03-03T12:48:17.713Z,17.70
2019-03-03T12:51:44.513Z,18.77
2019-03-03T12:54:32.056Z,21.40
2019-03-03T12:57:18.226Z,17.50
2019-03-03T13:00:11.452Z,15.97
2019-03-03T13:03:09.389Z,21.43
2019-03-03T13:05:56.467Z,16.13
2019-03-03T13:08:41.390Z,17.87
2019-03-03T13:11:32.588Z,16.60
2019-03-03T13:14:33.297Z,17.83
2019-03-03T13:17:11.127Z,14.47
2019-03-03T13:20:05.403Z,15.37
2019-03-03T13:22:51.129Z,18.07
2019-03-03T13:25:35.522Z,16.27
2019-03-03T13:28:26.649Z,16.30
2019-03-03T13:31:13.804Z,17.87
2019-03-03T13:34:08.377Z,15.43
2019-03-03T13:37:11.740Z,15.73
2019-03-03T13:40:14.804Z,43.10
2019-03-03T13:42:56.699Z,12.67
2019-03-03T13:45:28.859Z,14.17
2019-03-03T13:47:58.317Z,13.00
2019-03-03T13:50:27.654Z,16.13
2019-03-03T13:52:57.029Z,15.77
2019-03-03T13:55:26.465Z,14.10
2019-03-03T13:57:55.922Z,13.77
2019-03-03T14:00:25.741Z,11.80
2019-03-03T14:02:55.130Z,11.73
2019-03-03T14:05:24.986Z,12.20
2019-03-03T14:07:54.461Z,11.80
2019-03-03T14:10:23.907Z,11.93
2019-03-03T14:12:53.260Z,13.33
2019-03-03T14:15:22.641Z,11.57
2019-03-03T14:17:52.004Z,11.23
2019-03-03T14:20:22.758Z,12.30
2019-03-03T14:22:53.664Z,12.57
2019-03-03T14:25:23.152Z,12.47
2019-03-03T14:27:52.567Z,14.37
2019-03-03T14:30:23.637Z,13.23
2019-03-03T14:32:52.959Z,14.37
2019-03-03T14:35:25.195Z,11.33
2019-03-03T14:37:54.529Z,14.30
2019-03-03T14:40:23.867Z,12.60
2019-03-03T14:42:53.245Z,11.83
2019-03-03T14:45:22.894Z,11.13
2019-03-03T14:47:52.227Z,13.27
2019-03-03T14:50:21.822Z,12.17
2019-03-03T14:52:51.361Z,12.43
2019-03-03T14:55:20.777Z,11.93
2019-03-03T14:57:50.270Z,14.33
2019-03-03T15:00:31.216Z,11.03
2019-03-03T15:03:02.381Z,13.03
2019-03-03T15:05:31.792Z,10.80
2019-03-03T15:08:01.149Z,8.60
2019-03-03T15:10:30.511Z,9.17
2019-03-03T15:13:00.211Z,10.00
2019-03-03T15:15:30.415Z,10.17
2019-03-03T15:17:59.761Z,11.20
2019-03-03T15:20:29.093Z,9.97
2019-03-03T15:22:58.594Z,12.70
2019-03-03T15:25:28.173Z,10.67
2019-03-03T15:27:57.525Z,8.87
2019-03-03T15:30:26.854Z,10.57
2019-03-03T15:32:56.221Z,9.30
2019-03-03T15:35:27.444Z,10.23
2019-03-03T15:37:56.991Z,11.90
2019-03-03T15:40:26.375Z,9.83
2019-03-03T15:42:55.836Z,11.83
2019-03-03T15:45:25.387Z,18.90
2019-03-03T15:47:54.719Z,11.23
2019-03-03T15:50:24.205Z,13.63
2019-03-03T15:52:53.597Z,13.30
2019-03-03T15:55:23.031Z,13.23
2019-03-03T15:57:52.642Z,12.53
2019-03-03T16:00:24.205Z,12.70
2019-03-03T16:02:53.645Z,21.70
2019-03-03T16:05:23.038Z,14.23
2019-03-03T16:07:52.878Z,14.13
2019-03-03T16:10:22.693Z,14.83
2019-03-03T16:12:52.028Z,13.47
2019-03-03T16:15:30.737Z,12.97
2019-03-03T16:18:02.456Z,14.33
2019-03-03T16:20:31.808Z,14.17
2019-03-03T16:23:01.159Z,14.30
2019-03-03T16:25:34.630Z,16.67
2019-03-03T16:28:04.007Z,14.53
2019-03-03T16:30:33.454Z,15.87
2019-03-03T16:33:02.841Z,15.03
2019-03-03T16:35:32.187Z,18.60
2019-03-03T16:38:01.569Z,19.07
2019-03-03T16:40:39.289Z,15.07
2019-03-03T16:43:02.167Z,12.23
2019-03-03T16:45:31.529Z,15.27
2019-03-03T16:48:00.915Z,14.27
2019-03-03T16:50:30.276Z,13.27
2019-03-03T16:52:59.626Z,14.83
2019-03-03T16:55:28.988Z,14.17
2019-03-03T16:57:58.390Z,14.83
2019-03-03T17:00:29.635Z,15.83
2019-03-03T17:02:59.016Z,13.63
2019-03-03T17:05:28.387Z,13.53
2019-03-03T17:07:57.721Z,19.43
2019-03-03T17:10:27.244Z,16.77
2019-03-03T17:12:56.597Z,15.00
2019-03-03T17:15:26.025Z,14.03
2019-03-03T17:17:55.404Z,13.00
2019-03-03T17:20:24.747Z,16.47
2019-03-03T17:22:54.111Z,14.20
2019-03-03T17:25:24.064Z,15.43
2019-03-03T17:27:53.434Z,15.00
2019-03-03T17:30:23.342Z,15.77
2019-03-03T17:32:53.207Z,18.63
2019-03-03T17:35:22.579Z,19.10
2019-03-03T17:37:52.183Z,15.30
2019-03-03T17:40:22.444Z,15.10
2019-03-03T17:42:52.942Z,15.80
2019-03-03T17:45:22.589Z,15.17
2019-03-03T17:47:52.363Z,17.10
2019-03-03T17:50:22.137Z,16.77
2019-03-03T17:52:53.151Z,16.27
2019-03-03T17:55:22.584Z,17.60
2019-03-03T17:57:52.235Z,16.73
2019-03-03T18:00:24.051Z,16.87
2019-03-03T18:02:53.939Z,19.00
2019-03-03T18:05:23.338Z,17.30
2019-03-03T18:07:52.841Z,20.20
2019-03-03T18:10:22.271Z,18.53
2019-03-03T18:12:51.944Z,19.00
2019-03-03T18:15:21.413Z,21.40
2019-03-03T18:18:22.071Z,19.80
2019-03-03T18:20:51.646Z,22.83
2019-03-03T18:24:14.535Z,23.30
2019-03-03T18:26:43.973Z,25.43
2019-03-03T18:29:13.463Z,23.20
2019-03-03T18:31:42.898Z,25.63
2019-03-03T18:34:12.271Z,24.80
2019-03-03T18:36:41.692Z,23.20
2019-03-03T18:39:11.220Z,25.47
2019-03-03T18:41:40.643Z,27.27
2019-03-03T18:44:10.379Z,26.87
2019-03-03T18:46:41.634Z,34.63
2019-03-03T18:49:11.173Z,29.97
2019-03-03T18:51:43.115Z,25.97
2019-03-03T18:54:12.474Z,27.47
2019-03-03T18:56:41.889Z,28.23
2019-03-03T18:59:11.389Z,24.60
2019-03-03T19:01:40.744Z,22.90
2019-03-03T19:04:10.437Z,22.60
2019-03-03T19:06:39.786Z,24.60
2019-03-03T19:09:11.790Z,24.07
2019-03-03T19:11:41.166Z,20.47
2019-03-03T19:14:10.508Z,19.93
2019-03-03T19:16:40.870Z,18.87
2019-03-03T19:19:10.225Z,18.57
2019-03-03T19:21:39.593Z,17.03
2019-03-03T19:24:08.941Z,24.80
2019-03-03T19:26:38.295Z,19.90
2019-03-03T19:29:07.717Z,15.97
2019-03-03T19:31:37.115Z,20.57
2019-03-03T19:34:08.900Z,18.43
2019-03-03T19:36:38.359Z,19.83
2019-03-03T19:39:07.866Z,19.27
2019-03-03T19:41:37.269Z,19.53
2019-03-03T19:44:06.658Z,22.03
2019-03-03T19:46:36.305Z,21.63
2019-03-03T19:49:05.915Z,22.57
2019-03-03T19:51:35.349Z,25.47
2019-03-03T19:54:04.878Z,24.53
2019-03-03T19:56:34.218Z,23.37
2019-03-03T19:59:03.577Z,24.07
2019-03-03T20:01:32.926Z,22.83
2019-03-03T20:04:02.257Z,25.47
2019-03-03T20:06:31.605Z,23.87
2019-03-03T20:09:01.007Z,21.77
2019-03-03T20:11:30.378Z,25.43
2019-03-03T20:14:02.035Z,23.43
2019-03-03T20:16:31.507Z,19.30
2019-03-03T20:19:00.870Z,18.03
2019-03-03T20:21:30.270Z,22.07
2019-03-03T20:23:59.679Z,22.77
2019-03-03T20:26:29.040Z,20.97
2019-03-03T20:28:58.397Z,24.67
2019-03-03T20:31:28.567Z,24.87
2019-03-03T20:33:58.702Z,29.03
2019-03-03T20:36:28.219Z,24.07
2019-03-03T20:38:57.581Z,31.67
2019-03-03T20:41:26.915Z,30.67
2019-03-03T20:43:56.272Z,30.07
2019-03-03T20:46:25.943Z,33.73
2019-03-03T20:48:55.279Z,39.20
2019-03-03T20:51:24.630Z,34.97
2019-03-03T20:53:53.998Z,35.07
2019-03-03T20:56:23.333Z,36.37
2019-03-03T20:58:54.107Z,38.37
2019-03-03T21:01:26.442Z,36.77
2019-03-03T21:03:55.810Z,34.80
2019-03-03T21:06:25.181Z,35.60
2019-03-03T21:08:54.586Z,36.43
2019-03-03T21:11:24.069Z,39.50
2019-03-03T21:13:53.492Z,35.70
2019-03-03T21:16:22.891Z,35.57
2019-03-03T21:18:52.295Z,38.73
2019-03-03T21:21:21.655Z,34.97
2019-03-03T21:23:51.217Z,37.27
2019-03-03T21:26:20.606Z,32.70
2019-03-03T21:28:49.995Z,35.03
2019-03-03T21:31:19.482Z,38.30
2019-03-03T21:33:51.987Z,36.93
2019-03-03T21:36:21.383Z,39.30
2019-03-03T21:38:50.874Z,37.77
2019-03-03T21:41:20.951Z,37.97
2019-03-03T21:43:50.387Z,40.40
2019-03-03T21:46:19.744Z,33.87
2019-03-03T21:48:49.728Z,37.03
2019-03-03T21:51:20.735Z,33.33
2019-03-03T21:53:50.204Z,39.37
2019-03-03T21:56:20.302Z,35.87
2019-03-03T21:58:52.811Z,41.67
2019-03-03T22:01:22.233Z,37.67
2019-03-03T22:03:51.599Z,44.03
2019-03-03T22:06:21.015Z,36.30
2019-03-03T22:08:50.497Z,39.33
2019-03-03T22:11:19.873Z,40.17
2019-03-03T22:13:49.334Z,38.70
2019-03-03T22:16:18.705Z,38.13
2019-03-03T22:18:48.159Z,35.73
2019-03-03T22:21:17.564Z,35.23
2019-03-03T22:23:46.972Z,40.90
2019-03-03T22:26:16.445Z,37.50
2019-03-03T22:28:45.898Z,35.40
2019-03-03T22:31:15.381Z,37.73
2019-03-03T22:33:44.950Z,38.87
2019-03-03T22:36:14.355Z,41.47
2019-03-03T22:38:43.955Z,40.40
2019-03-03T22:41:13.456Z,40.27
2019-03-03T22:43:42.992Z,39.03
2019-03-03T22:46:12.353Z,38.53
2019-03-03T22:48:41.762Z,38.77
2019-03-03T22:51:11.195Z,37.70
2019-03-03T22:53:40.607Z,40.73
2019-03-03T22:56:10.028Z,48.40
2019-03-03T22:58:39.532Z,49.30
2019-03-03T23:01:22.758Z,40.77
2019-03-03T23:04:13.929Z,44.33
2019-03-03T23:07:01.024Z,41.40
2019-03-03T23:10:18.762Z,38.40
2019-03-03T23:13:11.855Z,43.87
2019-03-03T23:16:24.159Z,49.17
2019-03-03T23:19:12.538Z,39.27
2019-03-03T23:22:08.790Z,35.97
2019-03-03T23:25:37.266Z,41.10
2019-03-03T23:28:09.170Z,40.47
2019-03-03T23:30:38.668Z,43.73
2019-03-03T23:33:07.992Z,45.73
2019-03-03T23:35:37.403Z,47.57
2019-03-03T23:38:06.745Z,42.50
2019-03-03T23:40:36.133Z,42.57
2019-03-03T23:43:05.563Z,48.53
2019-03-03T23:45:34.992Z,41.23
2019-03-03T23:48:04.566Z,45.00
2019-03-03T23:50:33.919Z,44.30
2019-03-03T23:53:03.322Z,38.53
2019-03-03T23:55:32.731Z,40.10
2019-03-03T23:58:02.119Z,41.97
